Time,TemperatureF,DewpointF,PressureIn,WindDirection,WindDirectionDegrees,WindSpeedMPH,WindSpeedGustMPH,Humidity,HourlyPrecipIn,Conditions,Clouds,dailyrainin,SolarRadiationWatts/m^2,SoftwareType,DateUTC
2013-11-05 00:03:00,33.0,23.0,-100.00,SSW,197,0.0,7.0,67,0.00,,,0.00,0.000000,,2013-11-05 05:03:00,
2013-11-05 00:13:00,33.0,23.0,-100.00,SSW,197,0.0,7.0,67,0.00,,,0.00,0.000000,,2013-11-05 05:13:00,
2013-11-05 00:23:00,33.0,23.0,-100.00,SSW,197,0.0,7.0,67,0.00,,,0.00,0.000000,,2013-11-05 05:23:00,
2013-11-05 00:54:00,31.0,25.0,-100.00,SSW,206,0.0,2.0,77,0.00,,,0.00,0.000000,,2013-11-05 05:54:00,
2013-11-05 01:03:00,31.0,25.0,-100.00,SSW,206,0.0,2.0,77,0.00,,,0.00,0.000000,,2013-11-05 06:03:00,
2013-11-05 01:13:00,31.0,25.0,-100.00,SSW,206,0.0,2.0,77,0.00,,,0.00,0.000000,,2013-11-05 06:13:00,
2013-11-05 01:22:00,31.0,25.0,-100.00,SSW,206,0.0,2.0,77,0.00,,,0.00,0.000000,,2013-11-05 06:22:00,
2013-11-05 01:52:00,31.0,25.0,-100.00,SE,129,2.0,3.0,77,0.00,,,0.00,0.000000,,2013-11-05 06:52:00,
2013-11-05 02:02:00,31.0,25.0,-100.00,SE,129,2.0,3.0,77,0.00,,,0.00,0.000000,,2013-11-05 07:02:00,
2013-11-05 02:11:00,31.0,25.0,-100.00,SE,129,2.0,3.0,77,0.00,,,0.00,0.000000,,2013-11-05 07:11:00,
2013-11-05 02:22:00,31.0,25.0,-100.00,SE,129,2.0,3.0,77,0.00,,,0.00,0.000000,,2013-11-05 07:22:00,
2013-11-05 02:52:00,30.0,25.0,-100.00,ENE,66,0.0,3.0,81,0.00,,,0.00,0.000000,,2013-11-05 07:52:00,
2013-11-05 03:02:00,30.0,25.0,-100.00,ENE,66,0.0,3.0,81,0.00,,,0.00,0.000000,,2013-11-05 08:02:00,
2013-11-05 03:12:00,30.0,25.0,-100.00,ENE,66,0.0,3.0,81,0.00,,,0.00,0.000000,,2013-11-05 08:12:00,
2013-11-05 03:22:00,30.0,25.0,-100.00,ENE,66,0.0,3.0,81,0.00,,,0.00,0.000000,,2013-11-05 08:22:00,
2013-11-05 03:52:00,30.0,23.0,-100.00,ESE,108,1.0,2.0,76,0.00,,,0.00,0.000000,,2013-11-05 08:52:00,
2013-11-05 04:03:00,30.0,23.0,-100.00,ESE,108,1.0,2.0,76,0.00,,,0.00,0.000000,,2013-11-05 09:03:00,
2013-11-05 04:12:00,30.0,23.0,-100.00,ESE,108,1.0,2.0,76,0.00,,,0.00,0.000000,,2013-11-05 09:12:00,
2013-11-05 04:22:00,30.0,23.0,-100.00,ESE,108,1.0,2.0,76,0.00,,,0.00,0.000000,,2013-11-05 09:22:00,
2013-11-05 04:53:00,28.0,25.0,-100.00,SW,217,0.0,3.0,88,0.00,,,0.00,0.000000,,2013-11-05 09:53:00,
2013-11-05 05:03:00,28.0,25.0,-100.00,SW,217,0.0,3.0,88,0.00,,,0.00,0.000000,,2013-11-05 10:03:00,
2013-11-05 05:13:00,28.0,25.0,-100.00,SW,217,0.0,3.0,88,0.00,,,0.00,0.000000,,2013-11-05 10:13:00,
2013-11-05 05:23:00,28.0,25.0,-100.00,SW,217,0.0,3.0,88,0.00,,,0.00,0.000000,,2013-11-05 10:23:00,
2013-11-05 05:53:00,30.0,25.0,-100.00,ENE,58,0.0,3.0,80,0.00,,,0.00,0.000000,,2013-11-05 10:53:00,
2013-11-05 06:02:00,30.0,25.0,-100.00,ENE,58,0.0,3.0,80,0.00,,,0.00,0.000000,,2013-11-05 11:02:00,
2013-11-05 06:13:00,30.0,25.0,-100.00,ENE,58,0.0,3.0,80,0.00,,,0.00,0.000000,,2013-11-05 11:13:00,
2013-11-05 06:22:00,30.0,25.0,-100.00,ENE,58,0.0,3.0,80,0.00,,,0.00,0.000000,,2013-11-05 11:22:00,
2013-11-05 06:52:00,35.0,24.0,-100.00,SSW,213,1.0,4.0,65,0.00,,,0.00,0.000000,,2013-11-05 11:52:00,
2013-11-05 07:02:00,35.0,24.0,-100.00,SSW,213,1.0,4.0,65,0.00,,,0.00,0.000000,,2013-11-05 12:02:00,
2013-11-05 07:12:00,35.0,24.0,-100.00,SSW,213,1.0,4.0,65,0.00,,,0.00,0.000000,,2013-11-05 12:12:00,
2013-11-05 07:22:00,35.0,24.0,-100.00,SSW,213,1.0,4.0,65,0.00,,,0.00,0.000000,,2013-11-05 12:22:00,
2013-11-05 07:52:00,38.0,27.0,-100.00,SE,136,1.0,5.0,64,0.00,,,0.00,6.000000,,2013-11-05 12:52:00,
2013-11-05 08:01:00,38.0,27.0,-100.00,SE,136,1.0,5.0,64,0.00,,,0.00,6.000000,,2013-11-05 13:01:00,
2013-11-05 08:11:00,38.0,27.0,-100.00,SE,136,1.0,5.0,64,0.00,,,0.00,6.000000,,2013-11-05 13:11:00,
2013-11-05 08:22:00,38.0,27.0,-100.00,SE,136,1.0,5.0,64,0.00,,,0.00,6.000000,,2013-11-05 13:22:00,
2013-11-05 09:22:00,45.0,29.0,-100.00,South,190,1.0,5.0,54,0.00,,,0.00,86.000000,,2013-11-05 14:22:00,
2013-11-05 09:52:00,47.0,30.0,-100.00,SSW,210,2.0,8.0,51,0.00,,,0.00,138.000000,,2013-11-05 14:52:00,
2013-11-05 10:02:00,47.0,30.0,-100.00,SSW,210,2.0,8.0,51,0.00,,,0.00,138.000000,,2013-11-05 15:02:00,
2013-11-05 10:11:00,47.0,30.0,-100.00,SSW,210,2.0,8.0,51,0.00,,,0.00,138.000000,,2013-11-05 15:11:00,
2013-11-05 10:22:00,47.0,30.0,-100.00,SSW,210,2.0,8.0,51,0.00,,,0.00,138.000000,,2013-11-05 15:22:00,
2013-11-05 10:53:00,52.0,31.0,-100.00,SSW,196,4.0,11.0,45,0.00,,,0.00,237.000000,,2013-11-05 15:53:00,
2013-11-05 11:03:00,52.0,31.0,-100.00,SSW,196,4.0,11.0,45,0.00,,,0.00,237.000000,,2013-11-05 16:03:00,
2013-11-05 11:13:00,52.0,31.0,-100.00,SSW,196,4.0,11.0,45,0.00,,,0.00,237.000000,,2013-11-05 16:13:00,
2013-11-05 11:23:00,52.0,31.0,-100.00,SSW,196,4.0,11.0,45,0.00,,,0.00,237.000000,,2013-11-05 16:23:00,
2013-11-05 11:53:00,57.0,34.0,-100.00,SSW,206,4.0,10.0,41,0.00,,,0.00,154.000000,,2013-11-05 16:53:00,
2013-11-05 12:02:00,57.0,34.0,-100.00,SSW,206,4.0,10.0,41,0.00,,,0.00,154.000000,,2013-11-05 17:02:00,
2013-11-05 12:12:00,57.0,34.0,-100.00,SSW,206,4.0,10.0,41,0.00,,,0.00,154.000000,,2013-11-05 17:12:00,
2013-11-05 12:22:00,57.0,34.0,-100.00,SSW,206,4.0,10.0,41,0.00,,,0.00,154.000000,,2013-11-05 17:22:00,
2013-11-05 12:52:00,60.0,34.0,-100.00,SSW,204,4.0,11.0,38,0.00,,,0.00,293.000000,,2013-11-05 17:52:00,
2013-11-05 13:02:00,60.0,34.0,-100.00,SSW,204,4.0,11.0,38,0.00,,,0.00,293.000000,,2013-11-05 18:02:00,
2013-11-05 13:12:00,60.0,34.0,-100.00,SSW,204,4.0,11.0,38,0.00,,,0.00,293.000000,,2013-11-05 18:12:00,
2013-11-05 13:22:00,60.0,34.0,-100.00,SSW,204,4.0,11.0,38,0.00,,,0.00,293.000000,,2013-11-05 18:22:00,
2013-11-05 13:52:00,60.0,34.0,-100.00,SSW,204,4.0,10.0,38,0.00,,,0.00,316.000000,,2013-11-05 18:52:00,
2013-11-05 14:02:00,60.0,34.0,-100.00,SSW,204,4.0,10.0,38,0.00,,,0.00,316.000000,,2013-11-05 19:02:00,
2013-11-05 14:11:00,60.0,34.0,-100.00,SSW,204,4.0,10.0,38,0.00,,,0.00,316.000000,,2013-11-05 19:11:00,
2013-11-05 14:22:00,60.0,34.0,-100.00,SSW,204,4.0,10.0,38,0.00,,,0.00,316.000000,,2013-11-05 19:22:00,
2013-11-05 14:52:00,62.0,34.0,-100.00,SW,219,4.0,12.0,35,0.00,,,0.00,347.000000,,2013-11-05 19:52:00,
2013-11-05 15:02:00,62.0,34.0,-100.00,SW,219,4.0,12.0,35,0.00,,,0.00,347.000000,,2013-11-05 20:02:00,
2013-11-05 15:12:00,62.0,34.0,-100.00,SW,219,4.0,12.0,35,0.00,,,0.00,347.000000,,2013-11-05 20:12:00,
2013-11-05 15:22:00,62.0,34.0,-100.00,SW,219,4.0,12.0,35,0.00,,,0.00,347.000000,,2013-11-05 20:22:00,
2013-11-05 15:53:00,58.0,33.0,-100.00,SSW,210,4.0,9.0,38,0.00,,,0.00,161.000000,,2013-11-05 20:53:00,
2013-11-05 16:02:00,58.0,33.0,-100.00,SSW,210,4.0,9.0,38,0.00,,,0.00,161.000000,,2013-11-05 21:02:00,
2013-11-05 16:12:00,58.0,33.0,-100.00,SSW,210,4.0,9.0,38,0.00,,,0.00,161.000000,,2013-11-05 21:12:00,
2013-11-05 16:22:00,58.0,33.0,-100.00,SSW,210,4.0,9.0,38,0.00,,,0.00,161.000000,,2013-11-05 21:22:00,
2013-11-05 16:54:00,55.0,33.0,-100.00,SSW,196,2.0,8.0,44,0.00,,,0.00,62.000000,,2013-11-05 21:54:00,
2013-11-05 17:04:00,55.0,33.0,-100.00,SSW,196,2.0,8.0,44,0.00,,,0.00,62.000000,,2013-11-05 22:04:00,
2013-11-05 17:13:00,55.0,33.0,-100.00,SSW,196,2.0,8.0,44,0.00,,,0.00,62.000000,,2013-11-05 22:13:00,
2013-11-05 17:23:00,55.0,33.0,-100.00,SSW,196,2.0,8.0,44,0.00,,,0.00,62.000000,,2013-11-05 22:23:00,
2013-11-05 17:53:00,52.0,32.0,-100.00,South,190,1.0,9.0,47,0.00,,,0.00,6.000000,,2013-11-05 22:53:00,
2013-11-05 18:03:00,52.0,32.0,-100.00,South,190,1.0,9.0,47,0.00,,,0.00,6.000000,,2013-11-05 23:03:00,
2013-11-05 18:12:00,52.0,32.0,-100.00,South,190,1.0,9.0,47,0.00,,,0.00,6.000000,,2013-11-05 23:12:00,
2013-11-05 18:22:00,52.0,32.0,-100.00,South,190,1.0,9.0,47,0.00,,,0.00,6.000000,,2013-11-05 23:22:00,
2013-11-05 18:54:00,49.0,32.0,-100.00,ESE,121,0.0,3.0,52,0.00,,,0.00,0.000000,,2013-11-05 23:54:00,
2013-11-05 19:03:00,49.0,32.0,-100.00,ESE,121,0.0,3.0,52,0.00,,,0.00,0.000000,,2013-11-06 00:03:00,
2013-11-05 19:12:00,49.0,32.0,-100.00,ESE,121,0.0,3.0,52,0.00,,,0.00,0.000000,,2013-11-06 00:12:00,
2013-11-05 19:22:00,49.0,32.0,-100.00,ESE,121,0.0,3.0,52,0.00,,,0.00,0.000000,,2013-11-06 00:22:00,
2013-11-05 19:52:00,49.0,32.0,-100.00,SSW,197,0.0,3.0,52,0.00,,,0.00,0.000000,,2013-11-06 00:52:00,
2013-11-05 20:02:00,49.0,32.0,-100.00,SSW,197,0.0,3.0,52,0.00,,,0.00,0.000000,,2013-11-06 01:02:00,
2013-11-05 20:11:00,49.0,32.0,-100.00,SSW,197,0.0,3.0,52,0.00,,,0.00,0.000000,,2013-11-06 01:11:00,
2013-11-05 20:22:00,49.0,32.0,-100.00,SSW,197,0.0,3.0,52,0.00,,,0.00,0.000000,,2013-11-06 01:22:00,
2013-11-05 20:52:00,50.0,30.0,-100.00,South,175,2.0,7.0,46,0.00,,,0.00,0.000000,,2013-11-06 01:52:00,
2013-11-05 21:02:00,50.0,30.0,-100.00,South,175,2.0,7.0,46,0.00,,,0.00,0.000000,,2013-11-06 02:02:00,
2013-11-05 21:12:00,50.0,30.0,-100.00,South,175,2.0,7.0,46,0.00,,,0.00,0.000000,,2013-11-06 02:12:00,
2013-11-05 21:23:00,50.0,30.0,-100.00,South,175,2.0,7.0,46,0.00,,,0.00,0.000000,,2013-11-06 02:23:00,
2013-11-05 21:52:00,49.0,30.0,-100.00,SSE,155,1.0,6.0,48,0.00,,,0.00,0.000000,,2013-11-06 02:52:00,
2013-11-05 22:03:00,49.0,30.0,-100.00,SSE,155,1.0,6.0,48,0.00,,,0.00,0.000000,,2013-11-06 03:03:00,
2013-11-05 22:12:00,49.0,30.0,-100.00,SSE,155,1.0,6.0,48,0.00,,,0.00,0.000000,,2013-11-06 03:12:00,
2013-11-05 22:22:00,49.0,30.0,-100.00,SSE,155,1.0,6.0,48,0.00,,,0.00,0.000000,,2013-11-06 03:22:00,
2013-11-05 22:55:00,48.0,30.0,-100.00,SE,125,1.0,4.0,50,0.00,,,0.00,0.000000,,2013-11-06 03:55:00,
2013-11-05 23:05:00,48.0,30.0,-100.00,SE,125,1.0,4.0,50,0.00,,,0.00,0.000000,,2013-11-06 04:05:00,
2013-11-05 23:14:00,48.0,30.0,-100.00,SE,125,1.0,4.0,50,0.00,,,0.00,0.000000,,2013-11-06 04:14:00,
2013-11-05 23:24:00,48.0,30.0,-100.00,SE,125,1.0,4.0,50,0.00,,,0.00,0.000000,,2013-11-06 04:24:00,
2013-11-05 23:54:00,49.0,29.0,-100.00,South,189,3.0,9.0,45,0.00,,,0.00,0.000000,,2013-11-06 04:54:00,